Time;durP1;ratioP1;P1;durP2;ratioP2;P2;SDS_P1;SDS_P2;PMS_P1;PMS_P2;Temp;Humidity;BMP_temperature;BMP_pressure;BME280_temperature;BME280_humidity;BME280_pressure;Samples;Min_cycle;Max_cycle;Signal;HPM_P1;HPM_P2
2022/02/08 00:00:39;;;;;;;7.90;2.50;;;1.60;99.90;;;;;;4973719;28;20168;-67
2022/02/08 00:03:05;;;;;;;7.07;2.70;;;1.60;99.90;;;;;;4973509;28;20312;-67
2022/02/08 00:05:30;;;;;;;7.80;3.20;;;1.60;99.90;;;;;;4973305;28;20475;-67
2022/02/08 00:07:57;;;;;;;6.43;3.13;;;1.70;99.90;;;;;;4973505;28;20177;-67
2022/02/08 00:10:25;;;;;;;4.17;2.47;;;1.70;99.90;;;;;;4973513;28;20168;-67
2022/02/08 00:12:50;;;;;;;4.67;2.30;;;1.70;99.90;;;;;;4973293;28;20830;-67
2022/02/08 00:15:16;;;;;;;6.07;2.70;;;1.70;99.90;;;;;;4973199;28;20420;-67
2022/02/08 00:17:42;;;;;;;6.07;2.80;;;1.70;99.90;;;;;;4973455;28;20177;-67
2022/02/08 00:20:08;;;;;;;9.40;2.80;;;1.70;99.90;;;;;;4973447;28;20247;-67
2022/02/08 00:22:37;;;;;;;3.60;2.53;;;1.60;99.90;;;;;;4973516;28;20232;-67
2022/02/08 00:25:04;;;;;;;7.40;2.80;;;1.70;99.90;;;;;;4973060;28;20423;-67
2022/02/08 00:27:30;;;;;;;6.97;3.10;;;1.70;99.90;;;;;;4973363;28;20443;-67
2022/02/08 00:29:55;;;;;;;6.83;2.67;;;1.80;99.90;;;;;;4973270;28;20913;-67
2022/02/08 00:32:21;;;;;;;4.30;2.70;;;1.80;99.90;;;;;;4973123;28;20196;-67
2022/02/08 00:34:47;;;;;;;6.57;2.60;;;1.90;99.90;;;;;;4973159;28;20203;-67
2022/02/08 00:37:13;;;;;;;7.37;2.50;;;1.90;99.90;;;;;;4972971;28;20168;-67
2022/02/08 00:39:38;;;;;;;3.30;2.20;;;2.00;99.90;;;;;;4973241;28;20485;-67
2022/02/08 00:42:07;;;;;;;5.27;2.47;;;2.00;99.90;;;;;;4973148;28;20274;-66
2022/02/08 00:44:41;;;;;;;3.93;2.50;;;2.10;99.90;;;;;;4973080;28;20199;-67
2022/02/08 00:47:17;;;;;;;6.93;2.90;;;2.10;99.90;;;;;;4972736;28;20617;-67
2022/02/08 00:49:44;;;;;;;3.77;2.47;;;2.20;99.90;;;;;;4973113;28;20419;-67
2022/02/08 00:52:15;;;;;;;4.40;2.10;;;2.20;99.90;;;;;;4972916;28;20459;-67
2022/02/08 00:54:45;;;;;;;2.90;1.80;;;2.20;99.90;;;;;;4972965;28;20833;-67
2022/02/08 00:57:11;;;;;;;5.63;1.90;;;2.20;99.90;;;;;;4972769;28;20430;-67
2022/02/08 00:59:37;;;;;;;8.17;2.80;;;2.30;99.90;;;;;;4987751;28;20428;-67
2022/02/08 01:02:04;;;;;;;6.87;3.10;;;2.30;99.90;;;;;;4972968;28;20419;-67
2022/02/08 01:04:30;;;;;;;6.00;2.20;;;2.30;99.90;;;;;;4972956;28;20184;-67
2022/02/08 01:06:57;;;;;;;7.50;2.70;;;2.30;99.90;;;;;;4972664;28;20980;-67
2022/02/08 01:09:42;;;;;;;7.10;2.73;;;2.30;99.90;;;;;;4972899;28;20659;-66
2022/02/08 01:12:08;;;;;;;5.83;2.73;;;2.30;99.90;;;;;;4972856;28;20419;-67
2022/02/08 01:14:38;;;;;;;6.67;2.70;;;2.30;99.90;;;;;;4972699;28;20431;-67
2022/02/08 01:17:06;;;;;;;5.97;2.00;;;2.30;99.90;;;;;;4972549;28;20498;-67
2022/02/08 01:19:32;;;;;;;7.07;3.33;;;2.30;99.90;;;;;;4972868;28;20419;-67
2022/02/08 01:21:58;;;;;;;2.57;1.93;;;2.30;99.90;;;;;;4972853;28;20416;-66
2022/02/08 01:24:24;;;;;;;5.00;1.97;;;2.30;99.90;;;;;;4972748;28;20446;-67
2022/02/08 01:26:59;;;;;;;5.73;2.17;;;2.20;99.90;;;;;;4972439;28;20215;-67
2022/02/08 01:29:37;;;;;;;5.00;1.83;;;2.20;99.90;;;;;;4972801;28;20638;-67
2022/02/08 01:32:51;;;;;;;3.03;2.03;;;2.20;99.90;;;;;;4972737;28;20411;-67
2022/02/08 01:37:53;;;;;;;9.03;2.43;;;2.20;99.90;;;;;;4973038;28;20415;-67
2022/02/08 01:47:48;;;;;;;5.40;2.00;;;2.20;99.90;;;;;;4972392;28;20449;-64
2022/02/08 01:50:16;;;;;;;8.70;2.27;;;2.20;99.90;;;;;;4973596;28;20226;-67
2022/02/08 01:52:43;;;;;;;4.87;2.30;;;2.20;99.90;;;;;;4976006;28;20455;-66
2022/02/08 01:55:11;;;;;;;2.50;2.27;;;2.20;99.90;;;;;;4975872;28;20529;-67
2022/02/08 01:57:38;;;;;;;8.40;2.10;;;2.30;99.90;;;;;;4976003;28;20862;-64
2022/02/08 02:00:07;;;;;;;3.87;1.80;;;2.30;99.90;;;;;;4975948;28;20415;-64
2022/02/08 02:02:32;;;;;;;8.50;2.40;;;2.30;99.90;;;;;;4975689;28;20428;-64
2022/02/08 02:04:58;;;;;;;6.63;3.07;;;2.40;99.90;;;;;;4975760;28;20475;-64
2022/02/08 02:07:25;;;;;;;2.87;1.90;;;2.40;99.90;;;;;;4974524;28;20188;-67
2022/02/08 02:09:50;;;;;;;5.43;2.73;;;2.40;99.90;;;;;;4975739;28;20642;-67
2022/02/08 02:12:16;;;;;;;5.10;2.30;;;2.40;99.90;;;;;;4975678;28;20491;-66
2022/02/08 02:14:42;;;;;;;6.10;2.20;;;2.40;99.90;;;;;;4975519;28;20195;-66
2022/02/08 02:17:10;;;;;;;4.97;1.90;;;2.40;99.90;;;;;;4975378;28;20233;-66
2022/02/08 02:19:36;;;;;;;6.80;2.00;;;2.50;99.90;;;;;;4975724;28;20455;-67
2022/02/08 02:22:03;;;;;;;6.13;2.20;;;2.50;99.90;;;;;;4975548;28;20416;-67
2022/02/08 02:24:29;;;;;;;4.13;1.70;;;2.50;99.90;;;;;;4975406;28;20443;-67
2022/02/08 02:26:57;;;;;;;3.63;1.57;;;2.50;99.90;;;;;;4975120;28;20515;-67
2022/02/08 02:29:24;;;;;;;4.53;2.30;;;2.40;99.90;;;;;;4975253;28;20653;-67
2022/02/08 02:31:50;;;;;;;2.83;1.67;;;2.50;99.90;;;;;;4975357;28;20463;-67
2022/02/08 02:34:19;;;;;;;4.20;2.10;;;2.40;99.90;;;;;;4975214;28;20992;-67
2022/02/08 02:36:46;;;;;;;6.63;2.10;;;2.40;99.90;;;;;;4975224;28;20929;-67
2022/02/08 02:39:13;;;;;;;4.07;2.13;;;2.40;99.90;;;;;;4975277;28;20416;-67
2022/02/08 02:41:40;;;;;;;3.60;2.23;;;2.40;99.90;;;;;;4974982;28;20455;-67
2022/02/08 02:44:08;;;;;;;5.03;2.70;;;2.40;99.90;;;;;;4975029;28;20439;-67
2022/02/08 02:46:34;;;;;;;4.77;1.80;;;2.40;99.90;;;;;;4974827;28;20424;-66
2022/02/08 02:48:59;;;;;;;6.30;2.70;;;2.40;99.90;;;;;;4974900;28;20458;-66
2022/02/08 02:51:25;;;;;;;2.33;1.43;;;2.40;99.90;;;;;;4975065;28;20176;-66
2022/02/08 02:53:51;;;;;;;3.83;1.60;;;2.40;99.90;;;;;;4974789;28;20459;-67
2022/02/08 02:56:16;;;;;;;2.50;1.87;;;2.40;99.90;;;;;;4974674;28;20416;-67
2022/02/08 02:58:42;;;;;;;4.80;2.27;;;2.50;99.90;;;;;;4974973;28;20172;-66
2022/02/08 03:01:19;;;;;;;7.40;2.83;;;2.50;99.90;;;;;;4974409;28;20700;-67
2022/02/08 03:04:20;;;;;;;2.63;1.53;;;2.50;99.90;;;;;;4974393;28;20569;-66
2022/02/08 03:18:08;;;;;;;7.03;2.17;;;2.60;99.90;;;;;;4974518;28;20558;-67
2022/02/08 03:20:26;;;;;;;4.43;1.70;;;2.50;99.90;;;;;;4974413;28;20427;-67
2022/02/08 03:22:52;;;;;;;7.77;3.10;;;2.50;99.90;;;;;;4974404;28;20447;-66
2022/02/08 03:25:17;;;;;;;4.70;2.20;;;2.40;99.90;;;;;;4974069;28;20266;-66
2022/02/08 03:27:43;;;;;;;5.07;1.87;;;2.40;99.90;;;;;;4974209;28;20219;-67
2022/02/08 03:30:09;;;;;;;3.60;1.47;;;2.40;99.90;;;;;;4974319;28;20324;-66
2022/02/08 03:32:35;;;;;;;8.93;2.03;;;2.40;99.90;;;;;;4974120;28;20231;-66
2022/02/08 03:35:00;;;;;;;11.53;1.80;;;2.40;99.90;;;;;;4973930;28;20458;-67
2022/02/08 03:37:29;;;;;;;2.20;1.57;;;2.50;99.90;;;;;;4974034;28;20175;-66
2022/02/08 03:40:00;;;;;;;5.33;1.53;;;2.50;99.90;;;;;;4973936;28;20169;-66
2022/02/08 03:42:35;;;;;;;8.43;2.10;;;2.50;99.90;;;;;;4973934;28;20497;-66
2022/02/08 03:45:02;;;;;;;4.93;1.83;;;2.50;99.90;;;;;;4973753;28;20778;-67
2022/02/08 03:47:28;;;;;;;7.40;2.10;;;2.50;99.90;;;;;;4973850;28;20436;-67
2022/02/08 03:49:53;;;;;;;8.10;2.80;;;2.50;99.90;;;;;;4973993;28;20419;-67
2022/02/08 03:52:23;;;;;;;9.23;3.47;;;2.50;99.90;;;;;;4973805;28;20196;-67
2022/02/08 03:54:48;;;;;;;5.50;2.33;;;2.50;99.90;;;;;;4973755;28;20195;-67
2022/02/08 03:57:14;;;;;;;3.80;1.47;;;2.50;99.90;;;;;;4973459;28;20498;-64
2022/02/08 03:59:40;;;;;;;7.33;2.67;;;2.50;99.90;;;;;;4973659;28;20613;-66
2022/02/08 04:02:27;;;;;;;4.60;1.90;;;2.50;99.90;;;;;;4973625;28;20168;-66
2022/02/08 04:05:01;;;;;;;7.20;2.37;;;2.60;99.90;;;;;;4973484;28;20184;-67
2022/02/08 04:07:42;;;;;;;5.73;2.23;;;2.60;99.90;;;;;;4973590;28;20783;-67
2022/02/08 04:10:08;;;;;;;8.67;2.97;;;2.60;99.90;;;;;;4973622;28;20408;-67
2022/02/08 04:12:55;;;;;;;6.40;2.27;;;2.60;99.90;;;;;;4973149;28;20899;-67
2022/02/08 04:15:40;;;;;;;5.87;3.03;;;2.60;99.90;;;;;;4973101;28;20456;-66
2022/02/08 04:47:28;;;;;;;8.13;2.03;;;2.80;99.90;;;;;;4973113;28;20944;-66
2022/02/08 04:49:55;;;;;;;3.97;1.90;;;2.70;99.90;;;;;;4973073;28;20650;-66
2022/02/08 04:52:23;;;;;;;8.93;2.40;;;2.70;99.90;;;;;;4972927;28;20467;-67
2022/02/08 04:58:14;;;;;;;5.30;2.13;;;2.60;99.90;;;;;;4932304;29;21019;-66
2022/02/08 05:26:50;;;;;;;3.43;2.07;;;2.70;99.90;;;;;;4950454;28;20535;-65
2022/02/08 05:29:47;;;;;;;3.73;2.30;;;2.90;99.90;;;;;;4976732;28;20817;-64
2022/02/08 05:42:47;;;;;;;5.17;1.97;;;3.00;99.90;;;;;;4976304;28;20422;-64
2022/02/08 05:47:47;;;;;;;3.63;1.77;;;2.90;99.90;;;;;;4976158;28;20474;-65
2022/02/08 05:55:30;;;;;;;5.23;2.50;;;3.00;99.90;;;;;;4975622;28;20908;-64
2022/02/08 05:57:57;;;;;;;4.77;2.33;;;3.00;99.90;;;;;;4975869;28;20436;-64
2022/02/08 06:00:26;;;;;;;3.30;2.03;;;3.00;99.90;;;;;;4975925;28;20423;-66
2022/02/08 06:02:55;;;;;;;6.03;2.40;;;2.90;99.90;;;;;;4975781;28;20447;-66
2022/02/08 06:05:21;;;;;;;5.50;1.97;;;2.90;99.90;;;;;;4975393;28;20423;-66
2022/02/08 06:07:46;;;;;;;4.63;2.10;;;3.00;99.90;;;;;;4975535;28;20432;-64
2022/02/08 06:10:12;;;;;;;7.67;3.30;;;3.00;99.90;;;;;;4975507;28;20422;-64
2022/02/08 06:12:50;;;;;;;12.47;2.50;;;3.00;99.90;;;;;;4975496;28;20243;-64
2022/02/08 06:15:19;;;;;;;5.97;2.90;;;3.00;99.90;;;;;;4975312;28;20427;-64
2022/02/08 06:17:45;;;;;;;6.23;3.07;;;3.00;99.90;;;;;;4975566;28;20825;-64
2022/02/08 06:20:11;;;;;;;6.73;2.20;;;3.00;99.90;;;;;;4975557;28;20462;-64
2022/02/08 06:22:37;;;;;;;7.43;2.57;;;3.10;99.90;;;;;;4975453;28;20202;-64
2022/02/08 06:25:08;;;;;;;5.17;1.80;;;3.10;99.90;;;;;;4975175;28;20432;-64
2022/02/08 06:27:33;;;;;;;2.83;2.30;;;3.10;99.90;;;;;;4975370;28;20174;-64
2022/02/08 06:30:00;;;;;;;7.23;2.83;;;3.10;99.90;;;;;;4975395;28;20855;-64
2022/02/08 06:32:31;;;;;;;6.73;2.23;;;3.10;99.90;;;;;;4975181;28;20291;-65
2022/02/08 06:34:58;;;;;;;10.23;2.73;;;3.10;99.90;;;;;;4975099;28;21163;-64
2022/02/08 06:37:26;;;;;;;7.67;2.20;;;3.10;99.90;;;;;;4974698;28;20515;-64
2022/02/08 06:39:51;;;;;;;5.27;2.03;;;3.20;99.90;;;;;;4975223;28;20426;-64
2022/02/08 06:42:17;;;;;;;8.30;1.80;;;3.20;99.90;;;;;;4975127;28;20785;-64
2022/02/08 06:44:42;;;;;;;3.50;1.77;;;3.20;99.90;;;;;;4975128;28;20794;-64
2022/02/08 06:47:08;;;;;;;7.93;2.60;;;3.30;99.90;;;;;;4974689;28;20703;-64
2022/02/08 06:49:34;;;;;;;8.37;3.70;;;3.30;99.90;;;;;;4974991;28;20202;-64
2022/02/08 06:51:59;;;;;;;7.73;2.07;;;3.30;99.90;;;;;;4974893;28;20431;-64
2022/02/08 06:54:25;;;;;;;8.77;2.73;;;3.30;99.90;;;;;;4974800;28;20204;-64
2022/02/08 06:56:50;;;;;;;7.13;2.93;;;3.30;99.90;;;;;;4974625;28;20177;-64
2022/02/08 06:59:18;;;;;;;7.57;5.37;;;3.30;99.90;;;;;;4974797;28;20701;-64
2022/02/08 07:01:45;;;;;;;9.10;2.03;;;3.30;99.90;;;;;;4974901;28;20164;-64
2022/02/08 07:04:14;;;;;;;8.50;2.07;;;3.30;99.90;;;;;;4974573;28;20977;-64
2022/02/08 07:06:41;;;;;;;7.63;2.67;;;3.30;99.90;;;;;;4974353;28;20423;-64
2022/02/08 07:09:07;;;;;;;9.97;2.40;;;3.30;99.90;;;;;;4974571;28;20428;-64
2022/02/08 07:11:33;;;;;;;3.57;2.27;;;3.40;99.90;;;;;;4974535;28;20913;-64
2022/02/08 07:13:59;;;;;;;3.80;2.23;;;3.40;99.90;;;;;;4974476;28;20239;-64
2022/02/08 07:16:25;;;;;;;6.87;1.90;;;3.50;99.90;;;;;;4974230;28;20172;-64
2022/02/08 07:18:50;;;;;;;6.93;2.87;;;3.60;99.90;;;;;;4973257;28;20900;-64
2022/02/08 07:21:16;;;;;;;6.10;2.53;;;3.70;99.90;;;;;;4974309;28;20172;-65
2022/02/08 07:23:41;;;;;;;4.97;2.03;;;3.70;99.90;;;;;;4974226;28;20255;-64
2022/02/08 07:26:07;;;;;;;6.23;1.80;;;3.70;99.90;;;;;;4973987;28;20199;-64
2022/02/08 07:28:42;;;;;;;3.27;2.00;;;3.80;99.90;;;;;;4974333;28;20179;-65
2022/02/08 07:31:16;;;;;;;5.73;1.80;;;3.80;99.90;;;;;;4974167;28;20543;-65
2022/02/08 07:34:14;;;;;;;7.70;2.10;;;3.80;99.90;;;;;;4957756;28;20485;-64
2022/02/08 07:38:56;;;;;;;8.00;2.00;;;4.00;99.90;;;;;;4993480;28;20505;-65
2022/02/08 07:44:05;;;;;;;4.40;2.00;;;4.20;99.90;;;;;;4978372;28;20203;-65
2022/02/08 07:46:30;;;;;;;6.77;1.83;;;4.20;99.90;;;;;;4973681;28;20420;-64
2022/02/08 07:48:56;;;;;;;7.30;2.50;;;4.20;99.90;;;;;;4973245;28;20435;-64
2022/02/08 07:51:23;;;;;;;5.13;2.20;;;4.20;99.90;;;;;;4973823;28;20187;-65
2022/02/08 07:53:49;;;;;;;7.03;2.43;;;4.30;99.90;;;;;;4972536;28;20212;-65
2022/02/08 07:56:15;;;;;;;8.53;2.30;;;4.30;99.90;;;;;;4973424;28;20830;-65
2022/02/08 07:58:41;;;;;;;6.30;2.50;;;4.30;99.90;;;;;;4973954;28;20722;-65
2022/02/08 08:01:08;;;;;;;4.37;1.97;;;4.30;99.90;;;;;;4973706;28;20428;-64
2022/02/08 08:03:37;;;;;;;5.80;2.93;;;4.30;99.90;;;;;;4978517;28;20191;-64
2022/02/08 08:06:03;;;;;;;7.67;2.53;;;4.30;99.90;;;;;;4992669;28;21065;-65
2022/02/08 08:08:29;;;;;;;9.33;2.83;;;4.30;99.90;;;;;;4992984;28;20434;-65
2022/02/08 08:10:54;;;;;;;7.90;2.53;;;4.40;99.90;;;;;;4992751;28;20423;-65
2022/02/08 08:13:21;;;;;;;10.17;2.60;;;4.50;99.90;;;;;;4985022;28;20222;-64
2022/02/08 08:15:52;;;;;;;5.40;1.83;;;4.50;99.90;;;;;;4973301;28;20179;-64
2022/02/08 08:20:59;;;;;;;4.87;2.23;;;4.70;99.90;;;;;;4973466;28;20419;-64
2022/02/08 08:23:24;;;;;;;5.97;1.93;;;4.70;99.90;;;;;;4969935;28;20506;-64
2022/02/08 08:25:50;;;;;;;8.40;2.13;;;4.80;99.90;;;;;;4972999;28;20168;-64
2022/02/08 08:28:17;;;;;;;8.27;2.40;;;4.80;99.90;;;;;;4972140;28;20210;-64
2022/02/08 08:30:43;;;;;;;6.53;2.70;;;4.80;99.90;;;;;;4973293;28;20194;-64
2022/02/08 08:33:09;;;;;;;3.93;2.27;;;4.80;99.90;;;;;;4969802;28;21073;-64
2022/02/08 08:35:35;;;;;;;4.70;2.17;;;4.80;99.90;;;;;;4972964;28;20412;-64
2022/02/08 08:38:04;;;;;;;6.60;2.00;;;4.90;99.90;;;;;;4973160;28;20757;-64
2022/02/08 08:40:48;;;;;;;5.77;1.87;;;5.00;99.90;;;;;;4973130;28;20915;-64
2022/02/08 08:53:49;;;;;;;7.53;2.20;;;5.30;99.90;;;;;;4954402;28;20468;-66
2022/02/08 08:56:15;;;;;;;9.93;2.20;;;5.30;99.90;;;;;;4992277;28;20411;-66
2022/02/08 08:58:44;;;;;;;5.83;1.90;;;5.20;99.90;;;;;;4992431;28;20218;-65
2022/02/08 09:01:11;;;;;;;7.90;2.43;;;5.60;99.90;;;;;;4994915;28;20167;-64
2022/02/08 09:03:37;;;;;;;6.43;2.07;;;6.70;99.90;;;;;;4983612;28;20502;-64
2022/02/08 09:06:03;;;;;;;4.87;2.77;;;7.70;99.90;;;;;;4976769;28;20431;-64
2022/02/08 09:08:32;;;;;;;6.17;2.07;;;8.70;99.90;;;;;;4976873;28;20423;-64
2022/02/08 09:11:06;;;;;;;3.80;2.00;;;9.70;99.90;;;;;;4976914;28;20439;-64
2022/02/08 09:13:47;;;;;;;3.80;1.70;;;10.40;99.90;;;;;;4973318;28;20461;-64
2022/02/08 09:30:14;;;;;;;6.60;2.13;;;11.50;99.90;;;;;;4976854;28;20836;-66
2022/02/08 09:32:47;;;;;;;5.73;2.10;;;12.30;98.60;;;;;;4974341;28;20470;-65
2022/02/08 09:35:14;;;;;;;4.47;2.30;;;12.10;97.90;;;;;;4975849;28;20840;-66
2022/02/08 09:37:41;;;;;;;6.57;2.80;;;11.10;99.00;;;;;;4976557;28;20426;-66
2022/02/08 09:40:09;;;;;;;5.77;1.93;;;10.70;99.90;;;;;;4976390;28;20419;-66
2022/02/08 09:42:38;;;;;;;8.03;2.07;;;10.80;99.90;;;;;;4974794;28;20423;-66
2022/02/08 09:45:05;;;;;;;6.50;3.37;;;11.40;99.90;;;;;;4974622;28;20434;-66
2022/02/08 09:47:40;;;;;;;8.73;2.50;;;12.90;97.70;;;;;;4976213;28;20454;-64
2022/02/08 09:50:14;;;;;;;5.27;2.20;;;13.80;95.40;;;;;;4976205;28;20423;-66
2022/02/08 09:52:45;;;;;;;6.27;3.10;;;15.10;92.90;;;;;;4974025;28;20454;-66
2022/02/08 09:55:11;;;;;;;7.20;2.03;;;14.70;91.70;;;;;;4975348;28;20423;-66
2022/02/08 09:57:38;;;;;;;6.23;2.60;;;15.20;89.90;;;;;;4976121;28;20419;-64
2022/02/08 10:00:04;;;;;;;3.20;2.13;;;15.40;87.00;;;;;;4976079;28;20186;-66
2022/02/08 10:02:30;;;;;;;11.93;2.50;;;14.60;89.20;;;;;;4975036;28;20423;-65
2022/02/08 10:05:03;;;;;;;5.60;1.77;;;14.20;89.60;;;;;;4973565;28;20444;-66
2022/02/08 10:07:35;;;;;;;7.77;2.60;;;14.70;89.70;;;;;;4975847;28;20230;-66
2022/02/08 10:10:08;;;;;;;6.63;2.37;;;15.10;87.00;;;;;;4975960;28;20420;-66
2022/02/08 10:13:00;;;;;;;8.03;3.13;;;15.60;85.30;;;;;;4973820;28;20459;-65
2022/02/08 10:24:05;;;;;;;5.03;2.37;;;14.50;87.00;;;;;;4972774;28;20450;-67
2022/02/08 10:26:53;;;;;;;5.20;3.10;;;14.90;84.40;;;;;;4975338;28;20452;-66
2022/02/08 10:29:38;;;;;;;6.00;2.33;;;15.70;82.50;;;;;;4975502;28;20420;-65
2022/02/08 10:37:41;;;;;;;5.33;2.70;;;17.90;70.80;;;;;;4975494;28;20858;-66
2022/02/08 10:40:07;;;;;;;3.90;2.57;;;16.10;73.80;;;;;;4975343;28;20428;-65
2022/02/08 10:42:34;;;;;;;4.73;2.40;;;15.50;75.40;;;;;;4973960;28;20478;-64
2022/02/08 10:45:00;;;;;;;4.93;2.20;;;14.00;80.20;;;;;;4973191;28;20254;-65
2022/02/08 10:47:40;;;;;;;5.10;2.20;;;13.50;84.40;;;;;;4975016;28;20439;-65
2022/02/08 10:50:09;;;;;;;4.27;2.27;;;13.70;85.60;;;;;;4975262;28;20459;-65
2022/02/08 10:52:37;;;;;;;6.27;2.00;;;15.60;80.20;;;;;;4973385;28;20455;-65
2022/02/08 10:55:18;;;;;;;5.33;2.13;;;15.60;78.90;;;;;;4973262;28;20551;-65
2022/02/08 10:58:06;;;;;;;3.47;2.63;;;16.30;78.00;;;;;;4975157;28;20424;-65
2022/02/08 11:00:42;;;;;;;4.40;2.43;;;16.80;76.10;;;;;;4975080;28;20798;-65
2022/02/08 11:03:19;;;;;;;4.80;2.60;;;17.60;72.80;;;;;;4972117;28;20451;-65
2022/02/08 11:06:40;;;;;;;5.40;2.37;;;18.70;69.80;;;;;;4974504;28;20442;-64
2022/02/08 11:08:53;;;;;;;5.77;1.90;;;19.80;66.00;;;;;;4974152;28;20439;-66
2022/02/08 11:17:54;;;;;;;2.57;2.10;;;19.20;64.10;;;;;;4974512;28;20455;-64
2022/02/08 11:20:20;;;;;;;6.27;2.47;;;21.00;60.20;;;;;;4974571;28;20804;-63
2022/02/08 11:27:52;;;;;;;4.97;2.30;;;22.40;54.00;;;;;;4974779;28;20947;-63
2022/02/08 11:30:47;;;;;;;6.10;3.83;;;22.50;53.80;;;;;;4974263;28;20443;-63
2022/02/08 11:33:48;;;;;;;4.87;2.27;;;22.80;53.90;;;;;;4971382;28;20474;-63
2022/02/08 12:04:59;;;;;;;3.63;1.77;;;13.40;93.10;;;;;;4968976;28;20483;-65
2022/02/08 12:07:25;;;;;;;1.93;1.70;;;14.20;92.30;;;;;;4973888;28;20419;-65
2022/02/08 12:09:57;;;;;;;12.67;3.90;;;14.10;92.10;;;;;;4973847;28;20419;-65
2022/02/08 12:54:22;;;;;;;8.83;4.07;;;14.40;95.50;;;;;;4982829;28;20470;-65
2022/02/08 12:57:07;;;;;;;4.30;1.77;;;14.20;96.70;;;;;;4992229;28;20797;-65
2022/02/08 14:04:03;;;;;;;2.60;1.37;;;10.60;99.90;;;;;;4982319;28;20462;-65
2022/02/08 14:06:32;;;;;;;6.97;2.83;;;10.70;99.90;;;;;;4972062;28;20447;-65
2022/02/08 14:09:15;;;;;;;4.07;1.40;;;10.70;99.90;;;;;;4973003;28;20427;-62
2022/02/08 14:14:30;;;;;;;4.07;2.37;;;10.80;99.90;;;;;;4969519;28;20471;-65
2022/02/08 14:30:32;;;;;;;4.10;1.97;;;10.40;99.90;;;;;;4972332;28;20536;-65
2022/02/08 14:33:54;;;;;;;3.80;1.33;;;10.30;99.90;;;;;;4969523;28;20485;-64
2022/02/08 15:00:36;;;;;;;5.40;2.70;;;10.60;99.90;;;;;;4972011;28;20724;-63
2022/02/08 15:05:27;;;;;;;3.70;1.37;;;10.80;99.90;;;;;;4985816;28;20498;-65
2022/02/08 15:10:46;;;;;;;5.97;2.90;;;10.80;99.90;;;;;;4991291;28;20481;-62
2022/02/08 15:13:13;;;;;;;3.20;2.33;;;10.60;99.90;;;;;;4987983;28;20521;-63
2022/02/08 15:18:23;;;;;;;1.43;1.07;;;10.50;99.90;;;;;;4990860;28;20433;-63
2022/02/08 15:20:49;;;;;;;2.27;1.30;;;10.40;99.90;;;;;;4990710;28;21123;-62
2022/02/08 15:23:18;;;;;;;5.20;2.50;;;10.20;99.90;;;;;;4988018;28;20217;-62
2022/02/08 15:25:45;;;;;;;8.10;2.20;;;10.30;99.90;;;;;;4989790;28;20175;-62
2022/02/08 15:28:11;;;;;;;2.77;1.20;;;10.20;99.90;;;;;;4990691;28;20423;-63
2022/02/08 15:30:36;;;;;;;4.03;3.10;;;10.10;99.90;;;;;;4990390;28;20485;-62
2022/02/08 15:33:06;;;;;;;3.10;1.10;;;9.90;99.90;;;;;;4987442;28;20474;-63
2022/02/08 15:35:31;;;;;;;3.23;2.07;;;9.80;99.90;;;;;;4989628;28;20234;-64
2022/02/08 15:37:57;;;;;;;2.70;1.50;;;9.80;99.90;;;;;;4990621;28;20473;-62
2022/02/08 15:40:24;;;;;;;6.10;2.60;;;9.80;99.90;;;;;;4990322;28;20649;-62
2022/02/08 15:42:50;;;;;;;1.53;1.43;;;9.80;99.90;;;;;;4984302;28;20239;-65
2022/02/08 15:47:44;;;;;;;5.07;1.40;;;9.70;99.90;;;;;;4970851;28;20196;-62
2022/02/08 15:50:16;;;;;;;3.67;1.50;;;9.70;99.90;;;;;;4970963;28;20792;-62
2022/02/08 15:55:17;;;;;;;1.70;1.30;;;9.70;99.90;;;;;;4969921;28;20929;-63
2022/02/08 15:58:07;;;;;;;3.73;1.33;;;9.60;99.90;;;;;;4973369;28;20972;-65
2022/02/08 16:14:15;;;;;;;2.20;1.53;;;9.40;99.90;;;;;;4981996;28;20811;-65
2022/02/08 16:19:48;;;;;;;2.60;1.07;;;9.30;99.90;;;;;;4973673;28;20427;-64
2022/02/08 16:54:34;;;;;;;2.20;1.47;;;9.30;99.90;;;;;;4973090;28;20470;-66
2022/02/08 16:57:17;;;;;;;2.17;1.60;;;9.40;99.90;;;;;;4971495;28;20538;-66
2022/02/08 16:59:44;;;;;;;4.60;1.50;;;9.50;99.90;;;;;;4973055;28;20415;-66
2022/02/08 17:02:10;;;;;;;3.03;1.30;;;9.50;99.90;;;;;;4972963;28;20455;-65
2022/02/08 17:04:36;;;;;;;2.97;1.57;;;9.60;99.90;;;;;;4972816;28;20474;-66
2022/02/08 17:07:05;;;;;;;4.20;3.17;;;9.50;99.90;;;;;;4972634;28;20909;-66
2022/02/08 17:09:55;;;;;;;3.80;2.50;;;9.50;99.90;;;;;;4972786;28;20672;-66
2022/02/08 17:12:32;;;;;;;14.43;5.87;;;9.60;99.90;;;;;;4972743;28;20423;-66
2022/02/08 17:45:22;;;;;;;3.67;2.33;;;9.30;99.90;;;;;;4976066;28;20449;-66
2022/02/08 17:47:49;;;;;;;4.23;2.80;;;9.30;99.90;;;;;;4976051;28;20439;-66
2022/02/08 17:50:18;;;;;;;11.10;6.63;;;9.20;99.90;;;;;;4976103;28;20808;-66
2022/02/08 17:52:45;;;;;;;4.00;2.13;;;9.20;99.90;;;;;;4976095;28;20451;-66
2022/02/08 17:55:11;;;;;;;4.03;3.43;;;9.20;99.90;;;;;;4975738;28;20423;-66
2022/02/08 17:57:37;;;;;;;10.60;2.70;;;9.20;99.90;;;;;;4975969;28;20510;-65
2022/02/08 18:00:05;;;;;;;3.33;2.40;;;9.20;99.90;;;;;;4976057;28;20468;-65
2022/02/08 18:02:31;;;;;;;9.80;2.07;;;9.30;99.90;;;;;;4975950;28;20426;-65
2022/02/08 18:04:59;;;;;;;5.73;1.70;;;9.40;99.90;;;;;;4975753;28;20420;-66
2022/02/08 18:07:25;;;;;;;3.47;2.30;;;9.40;99.90;;;;;;4975655;28;20224;-65
2022/02/08 18:09:52;;;;;;;2.23;1.70;;;9.30;99.90;;;;;;4975818;28;20443;-66
2022/02/08 18:12:20;;;;;;;3.90;1.93;;;9.30;99.90;;;;;;4975800;28;20584;-66
2022/02/08 18:14:53;;;;;;;2.30;1.87;;;9.30;99.90;;;;;;4975592;28;20474;-65
2022/02/08 18:17:25;;;;;;;3.40;2.13;;;9.40;99.90;;;;;;4975577;28;20490;-66
2022/02/08 18:20:00;;;;;;;8.30;3.50;;;9.40;99.90;;;;;;4975802;28;20442;-66
2022/02/08 18:28:05;;;;;;;7.90;2.77;;;9.40;99.90;;;;;;4975602;28;20836;-66
2022/02/08 19:08:48;;;;;;;3.50;2.20;;;9.40;99.90;;;;;;4974884;28;20988;-65
2022/02/08 19:11:40;;;;;;;5.13;2.93;;;9.40;99.90;;;;;;4974575;28;20242;-66
2022/02/08 19:14:32;;;;;;;3.97;2.30;;;9.40;99.90;;;;;;4974319;28;20478;-66
2022/02/08 19:17:14;;;;;;;3.33;2.40;;;9.50;99.90;;;;;;4974270;28;20434;-66
2022/02/08 19:19:47;;;;;;;3.33;2.40;;;9.40;99.90;;;;;;4974457;28;20769;-65
2022/02/08 19:22:12;;;;;;;4.40;2.30;;;9.40;99.90;;;;;;4974486;28;20419;-65
2022/02/08 19:24:38;;;;;;;2.93;2.10;;;9.40;99.90;;;;;;4974328;28;20458;-66
2022/02/08 19:27:04;;;;;;;4.40;3.10;;;9.30;99.90;;;;;;4974100;28;20183;-66
2022/02/08 19:29:34;;;;;;;4.57;3.10;;;9.30;99.90;;;;;;4974300;28;20176;-65
2022/02/08 19:32:01;;;;;;;7.37;2.63;;;9.40;99.90;;;;;;4974243;28;20530;-66
2022/02/08 19:34:27;;;;;;;14.50;6.90;;;9.40;99.90;;;;;;4974030;28;20840;-65
2022/02/08 19:36:57;;;;;;;4.57;2.70;;;9.40;99.90;;;;;;4973958;28;20424;-65
2022/02/08 19:39:22;;;;;;;17.30;9.60;;;9.30;99.90;;;;;;4974118;28;20677;-66
2022/02/08 19:41:48;;;;;;;6.27;4.23;;;9.30;99.90;;;;;;4974040;28;20506;-66
2022/02/08 19:44:14;;;;;;;6.57;2.60;;;9.30;99.90;;;;;;4973225;28;20199;-66
2022/02/08 19:46:40;;;;;;;5.50;2.93;;;9.30;99.90;;;;;;4973691;28;20176;-66
2022/02/08 19:49:06;;;;;;;11.27;7.03;;;9.30;99.90;;;;;;4973863;28;20192;-66
2022/02/08 19:51:34;;;;;;;7.10;4.80;;;9.30;99.90;;;;;;4973982;28;20523;-66
2022/02/08 19:54:00;;;;;;;7.20;3.90;;;9.40;99.90;;;;;;4973554;28;20781;-65
2022/02/08 19:56:32;;;;;;;7.40;4.33;;;9.40;99.90;;;;;;4973386;28;20451;-66
2022/02/08 19:58:59;;;;;;;4.53;4.13;;;9.40;99.90;;;;;;4973707;28;20470;-66
2022/02/08 20:01:31;;;;;;;5.63;3.80;;;9.40;99.90;;;;;;4973503;28;20459;-66
2022/02/08 20:06:23;;;;;;;4.47;2.97;;;9.20;99.90;;;;;;4973622;28;20427;-66
2022/02/08 20:08:49;;;;;;;6.40;3.10;;;9.20;99.90;;;;;;4973645;28;20424;-67
2022/02/08 20:11:14;;;;;;;9.53;3.57;;;9.20;99.90;;;;;;4973655;28;20331;-68
2022/02/08 20:13:50;;;;;;;6.80;2.93;;;9.20;99.90;;;;;;4971781;28;20255;-66
2022/02/08 20:16:16;;;;;;;4.97;2.97;;;9.10;99.90;;;;;;4973286;28;20532;-68
2022/02/08 20:18:45;;;;;;;3.00;2.20;;;9.10;99.90;;;;;;4973447;28;20424;-66
2022/02/08 20:21:10;;;;;;;10.23;3.47;;;9.20;99.90;;;;;;4973534;28;20164;-64
2022/02/08 20:23:37;;;;;;;5.90;2.87;;;9.20;99.90;;;;;;4973096;28;20447;-67
2022/02/08 20:26:04;;;;;;;5.93;3.10;;;9.20;99.90;;;;;;4973062;28;20183;-66
2022/02/08 20:28:49;;;;;;;6.50;2.80;;;9.20;99.90;;;;;;4973315;28;20428;-66
2022/02/08 20:31:15;;;;;;;5.10;3.50;;;9.30;99.90;;;;;;4973504;28;20494;-66
2022/02/08 20:33:42;;;;;;;4.23;2.80;;;9.30;99.90;;;;;;4973093;28;20461;-66
2022/02/08 20:36:07;;;;;;;4.80;2.70;;;9.30;99.90;;;;;;4972976;28;20415;-66
2022/02/08 20:38:33;;;;;;;4.13;3.40;;;9.10;99.90;;;;;;4973022;28;20507;-66
2022/02/08 20:40:59;;;;;;;5.73;3.60;;;9.10;99.90;;;;;;4973109;28;20180;-65
2022/02/08 20:43:24;;;;;;;6.97;3.77;;;9.20;99.90;;;;;;4973024;28;20537;-66
2022/02/08 20:45:50;;;;;;;4.20;3.60;;;9.20;99.90;;;;;;4972783;28;20208;-66
2022/02/08 20:48:18;;;;;;;6.90;3.50;;;9.10;99.90;;;;;;4972948;28;20654;-66
2022/02/08 20:50:46;;;;;;;5.07;3.60;;;9.20;99.90;;;;;;4973110;28;20473;-66
2022/02/08 20:53:23;;;;;;;6.33;3.80;;;9.20;99.90;;;;;;4972707;28;20987;-66
2022/02/08 20:55:58;;;;;;;4.90;3.77;;;9.20;99.90;;;;;;4976112;28;20511;-66
2022/02/08 20:58:39;;;;;;;6.40;4.47;;;9.10;99.90;;;;;;4980911;28;20427;-67